Time;durP1;ratioP1;P1;durP2;ratioP2;P2;SDS_P1;SDS_P2;PMS_P1;PMS_P2;Temp;Humidity;BMP_temperature;BMP_pressure;BME280_temperature;BME280_humidity;BME280_pressure;Samples;Min_cycle;Max_cycle;Signal;HPM_P1;HPM_P2
2021/10/13 00:00:16;;;;;;;5.07;4.67;;;;;;;;;;5053979;28;20029;-41
2021/10/13 00:02:41;;;;;;;5.83;5.00;;;;;;;;;;5054004;28;20024;-40
2021/10/13 00:05:07;;;;;;;4.87;4.47;;;;;;;;;;5053476;28;20091;-41
2021/10/13 00:07:33;;;;;;;4.90;4.40;;;;;;;;;;5053444;28;20040;-41
2021/10/13 00:09:58;;;;;;;5.23;4.73;;;;;;;;;;5053635;28;20037;-40
2021/10/13 00:12:24;;;;;;;6.13;4.93;;;;;;;;;;5053754;28;20060;-40
2021/10/13 00:14:50;;;;;;;5.88;5.20;;;;;;;;;;5053197;28;20056;-40
2021/10/13 00:17:15;;;;;;;5.10;4.60;;;;;;;;;;5051825;28;20064;-40
2021/10/13 00:19:41;;;;;;;4.43;4.03;;;;;;;;;;5053289;28;20430;-41
2021/10/13 00:22:06;;;;;;;5.70;4.93;;;;;;;;;;5052732;28;20029;-40
2021/10/13 00:24:32;;;;;;;4.73;4.33;;;;;;;;;;5056055;28;20490;-40
2021/10/13 00:26:57;;;;;;;6.00;4.47;;;;;;;;;;5053515;28;20035;-41
2021/10/13 00:29:22;;;;;;;4.27;3.87;;;;;;;;;;5053091;28;20511;-40
2021/10/13 00:31:48;;;;;;;5.67;4.67;;;;;;;;;;5053301;28;20373;-42
2021/10/13 00:34:15;;;;;;;6.47;4.60;;;;;;;;;;5052829;28;20495;-42
2021/10/13 00:36:40;;;;;;;5.20;4.57;;;;;;;;;;5052927;28;20021;-40
2021/10/13 00:39:06;;;;;;;5.13;4.63;;;;;;;;;;5053183;28;20574;-40
2021/10/13 00:41:31;;;;;;;4.97;4.47;;;;;;;;;;5051986;28;20027;-40
2021/10/13 00:43:56;;;;;;;5.23;4.30;;;;;;;;;;5053074;28;20104;-40
2021/10/13 00:46:22;;;;;;;5.00;4.57;;;;;;;;;;5052769;28;20029;-42
2021/10/13 00:48:47;;;;;;;4.80;4.20;;;;;;;;;;5052484;28;20479;-40
2021/10/13 00:51:13;;;;;;;6.13;4.50;;;;;;;;;;5053097;28;20074;-40
2021/10/13 00:53:39;;;;;;;6.03;4.70;;;;;;;;;;5052992;28;20036;-40
2021/10/13 00:56:05;;;;;;;5.28;4.50;;;;;;;;;;5052834;28;20021;-40
2021/10/13 00:58:30;;;;;;;4.83;4.27;;;;;;;;;;5052654;28;20033;-40
2021/10/13 01:00:58;;;;;;;4.70;4.30;;;;;;;;;;5052735;28;20047;-40
2021/10/13 01:03:33;;;;;;;4.60;4.20;;;;;;;;;;5052864;28;20021;-40
2021/10/13 01:06:05;;;;;;;4.60;4.07;;;;;;;;;;5052367;28;20037;-41
2021/10/13 01:08:35;;;;;;;5.82;4.53;;;;;;;;;;5052433;28;20160;-42
2021/10/13 01:11:01;;;;;;;5.60;4.55;;;;;;;;;;5052601;28;20025;-40
2021/10/13 01:13:32;;;;;;;5.13;4.63;;;;;;;;;;5052640;28;20025;-40
2021/10/13 01:16:01;;;;;;;4.60;4.20;;;;;;;;;;5052515;28;20035;-40
2021/10/13 01:18:26;;;;;;;5.15;4.65;;;;;;;;;;5052008;28;20044;-41
2021/10/13 01:21:02;;;;;;;4.67;4.27;;;;;;;;;;5052113;28;20024;-40
2021/10/13 01:23:33;;;;;;;5.07;4.28;;;;;;;;;;5052390;28;20028;-40
2021/10/13 01:26:17;;;;;;;4.65;4.25;;;;;;;;;;5052278;28;20514;-40
2021/10/13 01:28:44;;;;;;;4.68;4.18;;;;;;;;;;5051741;28;20126;-42
2021/10/13 01:31:20;;;;;;;4.70;4.30;;;;;;;;;;5052008;28;20025;-40
2021/10/13 01:33:51;;;;;;;4.70;4.30;;;;;;;;;;5051409;28;20021;-41
2021/10/13 01:36:19;;;;;;;5.00;4.50;;;;;;;;;;5052055;28;20028;-42
2021/10/13 01:38:47;;;;;;;4.70;4.20;;;;;;;;;;5056489;28;20037;-40
2021/10/13 01:41:13;;;;;;;5.68;4.63;;;;;;;;;;5052118;28;20036;-40
2021/10/13 01:43:41;;;;;;;4.83;4.33;;;;;;;;;;5052086;28;20025;-40
2021/10/13 01:46:07;;;;;;;4.60;4.20;;;;;;;;;;5051940;28;20037;-40
2021/10/13 01:48:34;;;;;;;4.50;4.00;;;;;;;;;;5052221;28;20139;-41
2021/10/13 01:51:00;;;;;;;5.40;4.50;;;;;;;;;;5051540;28;20039;-40
2021/10/13 01:53:26;;;;;;;4.70;4.07;;;;;;;;;;5051936;28;20078;-40
2021/10/13 01:55:53;;;;;;;4.75;4.13;;;;;;;;;;5051229;28;20052;-40
2021/10/13 01:58:18;;;;;;;;;;;;;;;;;;5052097;28;20487;-41
2021/10/13 02:00:47;;;;;;;4.20;3.80;;;;;;;;;;5051447;28;19962;-40
2021/10/13 02:03:13;;;;;;;4.20;3.78;;;;;;;;;;5051616;28;20057;-40
2021/10/13 02:05:39;;;;;;;5.63;4.00;;;;;;;;;;5051782;28;20372;-40
2021/10/13 02:08:04;;;;;;;4.53;4.13;;;;;;;;;;5051606;28;20594;-40
2021/10/13 02:10:30;;;;;;;4.93;4.43;;;;;;;;;;5051347;28;20377;-40
2021/10/13 02:12:57;;;;;;;4.80;4.33;;;;;;;;;;5043359;28;20021;-40
2021/10/13 02:15:23;;;;;;;4.40;4.00;;;;;;;;;;5031546;28;20032;-40
2021/10/13 02:17:51;;;;;;;4.30;3.90;;;;;;;;;;5030159;28;20053;-41
2021/10/13 02:20:17;;;;;;;4.65;4.18;;;;;;;;;;5030624;28;20251;-41
2021/10/13 02:22:43;;;;;;;4.85;4.30;;;;;;;;;;5031485;28;20025;-40
2021/10/13 02:25:09;;;;;;;4.47;4.07;;;;;;;;;;5031425;28;20022;-40
2021/10/13 02:27:40;;;;;;;4.77;4.37;;;;;;;;;;5031274;28;20388;-40
2021/10/13 02:30:06;;;;;;;4.18;3.78;;;;;;;;;;5030116;28;20025;-41
2021/10/13 02:32:32;;;;;;;4.68;3.83;;;;;;;;;;5031261;28;20029;-40
2021/10/13 02:34:57;;;;;;;4.30;3.90;;;;;;;;;;5031474;28;20112;-41
2021/10/13 02:37:23;;;;;;;4.37;3.97;;;;;;;;;;5031200;28;20061;-40
2021/10/13 02:39:48;;;;;;;4.30;3.90;;;;;;;;;;5031436;28;20022;-40
2021/10/13 02:42:13;;;;;;;4.20;3.80;;;;;;;;;;5031247;28;20099;-40
2021/10/13 02:44:39;;;;;;;4.47;3.50;;;;;;;;;;5033896;28;20108;-40
2021/10/13 02:47:07;;;;;;;4.40;4.00;;;;;;;;;;5035223;28;20053;-40
2021/10/13 02:49:51;;;;;;;4.82;4.30;;;;;;;;;;5044945;28;20021;-41
2021/10/13 02:52:19;;;;;;;4.32;3.92;;;;;;;;;;5057847;28;20037;-40
2021/10/13 02:54:59;;;;;;;4.50;3.95;;;;;;;;;;5055298;28;20072;-40
2021/10/13 02:57:27;;;;;;;4.22;3.78;;;;;;;;;;5055063;28;20032;-40
2021/10/13 02:59:53;;;;;;;4.40;4.00;;;;;;;;;;5055026;28;20024;-40
2021/10/13 03:02:22;;;;;;;4.03;3.73;;;;;;;;;;5055015;28;20047;-41
2021/10/13 03:04:50;;;;;;;4.72;3.97;;;;;;;;;;5053790;28;20033;-41
2021/10/13 03:07:17;;;;;;;4.85;4.20;;;;;;;;;;5054824;28;20108;-40
2021/10/13 03:09:42;;;;;;;;;;;;;;;;;;5055355;28;20037;-41
2021/10/13 03:12:09;;;;;;;4.40;4.00;;;;;;;;;;5054915;28;20448;-40
2021/10/13 03:14:36;;;;;;;4.65;4.13;;;;;;;;;;5054967;28;20076;-41
2021/10/13 03:17:02;;;;;;;4.63;4.13;;;;;;;;;;5053245;28;20541;-39
2021/10/13 03:19:28;;;;;;;4.43;4.03;;;;;;;;;;5054822;28;20033;-40
2021/10/13 03:21:54;;;;;;;4.10;3.63;;;;;;;;;;5054713;28;20028;-40
2021/10/13 03:24:20;;;;;;;3.87;3.43;;;;;;;;;;5054656;28;20387;-40
2021/10/13 03:26:46;;;;;;;4.60;4.20;;;;;;;;;;5054553;28;20037;-40
2021/10/13 03:29:12;;;;;;;4.40;4.00;;;;;;;;;;5053117;28;20274;-40
2021/10/13 03:31:37;;;;;;;4.33;3.93;;;;;;;;;;5054364;28;20029;-40
2021/10/13 03:34:02;;;;;;;3.80;3.50;;;;;;;;;;5054592;28;20032;-41
2021/10/13 03:36:36;;;;;;;4.03;3.57;;;;;;;;;;5053293;28;20033;-40
2021/10/13 03:39:01;;;;;;;6.22;4.07;;;;;;;;;;5054413;28;20044;-40
2021/10/13 03:41:26;;;;;;;4.67;3.60;;;;;;;;;;5054347;28;20476;-41
2021/10/13 03:43:52;;;;;;;4.57;4.00;;;;;;;;;;5054207;28;20107;-40
2021/10/13 03:46:18;;;;;;;4.33;3.77;;;;;;;;;;5054344;28;20056;-40
2021/10/13 03:48:45;;;;;;;3.88;3.55;;;;;;;;;;5053922;28;20095;-40
2021/10/13 03:51:10;;;;;;;;;;;;;;;;;;5054613;28;20036;-39
2021/10/13 03:53:36;;;;;;;4.83;3.73;;;;;;;;;;5054049;28;19908;-40
2021/10/13 03:56:01;;;;;;;5.50;3.63;;;;;;;;;;5053271;28;20403;-40
2021/10/13 03:58:26;;;;;;;4.50;3.80;;;;;;;;;;5053898;28;20024;-40
2021/10/13 04:00:52;;;;;;;4.27;3.87;;;;;;;;;;5053904;28;20021;-40
2021/10/13 04:03:17;;;;;;;5.03;3.80;;;;;;;;;;5052679;28;20265;-40
2021/10/13 04:05:42;;;;;;;5.50;3.57;;;;;;;;;;5057309;28;20032;-40
2021/10/13 04:08:08;;;;;;;4.23;3.57;;;;;;;;;;5053781;28;20483;-40
2021/10/13 04:10:33;;;;;;;4.47;3.40;;;;;;;;;;5053886;28;20488;-41
2021/10/13 04:12:58;;;;;;;4.13;3.73;;;;;;;;;;5053744;28;20028;-40
2021/10/13 04:15:24;;;;;;;4.20;3.80;;;;;;;;;;5053667;28;20029;-40
2021/10/13 04:17:49;;;;;;;4.27;3.87;;;;;;;;;;5053397;28;20052;-40
2021/10/13 04:20:14;;;;;;;4.30;3.90;;;;;;;;;;5053700;28;20017;-40
2021/10/13 04:22:40;;;;;;;3.80;3.50;;;;;;;;;;5053595;28;20024;-41
2021/10/13 04:25:06;;;;;;;3.70;3.40;;;;;;;;;;5053589;28;20098;-40
2021/10/13 04:27:31;;;;;;;4.07;3.70;;;;;;;;;;5053483;28;20063;-41
2021/10/13 04:29:56;;;;;;;4.17;3.77;;;;;;;;;;5053358;28;20063;-41
2021/10/13 04:32:23;;;;;;;4.63;4.22;;;;;;;;;;5053190;28;20376;-40
2021/10/13 04:34:48;;;;;;;4.43;4.00;;;;;;;;;;5052994;28;20086;-40
2021/10/13 04:37:14;;;;;;;3.70;3.40;;;;;;;;;;5053481;28;20036;-40
2021/10/13 04:39:39;;;;;;;4.47;4.10;;;;;;;;;;5053315;28;20478;-40
2021/10/13 04:42:04;;;;;;;4.00;3.70;;;;;;;;;;5053361;28;20079;-40
2021/10/13 04:44:30;;;;;;;3.70;3.37;;;;;;;;;;5052747;28;20079;-40
2021/10/13 04:46:55;;;;;;;4.27;3.87;;;;;;;;;;5051884;28;20094;-40
2021/10/13 04:49:20;;;;;;;6.33;3.53;;;;;;;;;;5052897;28;20033;-40
2021/10/13 04:51:46;;;;;;;4.40;3.80;;;;;;;;;;5053095;28;20115;-40
2021/10/13 04:54:11;;;;;;;4.97;4.10;;;;;;;;;;5052682;28;20032;-40
2021/10/13 04:56:37;;;;;;;5.00;4.10;;;;;;;;;;5052837;28;20053;-40
2021/10/13 04:59:02;;;;;;;5.30;3.47;;;;;;;;;;5052526;28;20025;-42
2021/10/13 05:01:27;;;;;;;4.13;3.72;;;;;;;;;;5053035;28;20111;-40
2021/10/13 05:03:53;;;;;;;4.30;3.90;;;;;;;;;;5053010;28;20025;-40
2021/10/13 05:06:18;;;;;;;4.40;4.00;;;;;;;;;;5052925;28;20084;-41
2021/10/13 05:08:43;;;;;;;6.07;3.97;;;;;;;;;;5052696;28;20036;-39
2021/10/13 05:11:09;;;;;;;4.30;3.75;;;;;;;;;;5052885;28;20033;-39
2021/10/13 05:13:35;;;;;;;4.93;3.97;;;;;;;;;;5052693;28;20040;-39
2021/10/13 05:16:00;;;;;;;4.77;3.73;;;;;;;;;;5052451;28;20040;-39
2021/10/13 05:18:25;;;;;;;3.75;3.45;;;;;;;;;;5052599;28;20072;-43
2021/10/13 05:20:51;;;;;;;3.63;3.33;;;;;;;;;;5053654;28;20083;-41
2021/10/13 05:23:16;;;;;;;4.50;4.10;;;;;;;;;;5052404;28;20561;-42
2021/10/13 05:25:42;;;;;;;4.30;3.75;;;;;;;;;;5052442;28;20029;-40
2021/10/13 05:28:07;;;;;;;4.30;3.80;;;;;;;;;;5052065;28;20446;-39
2021/10/13 05:30:33;;;;;;;4.25;3.70;;;;;;;;;;5052704;28;20025;-40
2021/10/13 05:32:58;;;;;;;4.03;3.50;;;;;;;;;;5052372;28;20103;-39
2021/10/13 05:35:24;;;;;;;5.23;3.80;;;;;;;;;;5050816;28;20035;-41
2021/10/13 05:37:49;;;;;;;3.95;3.63;;;;;;;;;;5051868;28;20029;-39
2021/10/13 05:40:14;;;;;;;4.47;3.50;;;;;;;;;;5051827;28;20021;-39
2021/10/13 05:42:39;;;;;;;4.37;3.93;;;;;;;;;;5051028;28;20025;-41
2021/10/13 05:45:05;;;;;;;3.97;3.57;;;;;;;;;;5052256;28;20025;-40
2021/10/13 05:47:30;;;;;;;4.67;3.87;;;;;;;;;;5051467;28;20361;-40
2021/10/13 05:49:56;;;;;;;4.88;4.07;;;;;;;;;;5051614;28;20086;-41
2021/10/13 05:52:21;;;;;;;4.13;3.72;;;;;;;;;;5051869;28;20044;-40
2021/10/13 05:54:47;;;;;;;5.60;3.75;;;;;;;;;;5051792;28;20037;-41
2021/10/13 05:57:12;;;;;;;3.97;3.57;;;;;;;;;;5051860;28;20476;-39
2021/10/13 05:59:38;;;;;;;3.90;3.37;;;;;;;;;;5051341;28;20400;-39
2021/10/13 06:02:04;;;;;;;4.68;4.18;;;;;;;;;;5051888;28;20025;-39
2021/10/13 06:04:29;;;;;;;4.03;3.63;;;;;;;;;;5050699;28;20108;-38
2021/10/13 06:06:55;;;;;;;5.00;4.03;;;;;;;;;;5051176;28;20033;-41
2021/10/13 06:09:20;;;;;;;3.92;3.55;;;;;;;;;;5051523;28;20024;-39
2021/10/13 06:11:45;;;;;;;4.20;3.85;;;;;;;;;;5051527;28;20079;-39
2021/10/13 06:14:11;;;;;;;4.50;3.97;;;;;;;;;;5051747;28;20040;-39
2021/10/13 06:16:36;;;;;;;4.30;3.65;;;;;;;;;;5051651;28;20029;-39
2021/10/13 06:19:02;;;;;;;4.55;3.83;;;;;;;;;;5051056;28;20052;-40
2021/10/13 06:21:27;;;;;;;5.45;4.03;;;;;;;;;;5049883;28;20059;-41
2021/10/13 06:23:52;;;;;;;6.40;4.17;;;;;;;;;;5051182;28;20103;-40
2021/10/13 06:26:18;;;;;;;4.50;4.10;;;;;;;;;;5049886;28;20029;-40
2021/10/13 06:28:43;;;;;;;4.30;3.90;;;;;;;;;;5051078;28;20483;-42
2021/10/13 06:31:09;;;;;;;3.80;3.30;;;;;;;;;;5051087;28;20111;-40
2021/10/13 06:33:36;;;;;;;4.13;3.60;;;;;;;;;;5052414;28;20025;-40
2021/10/13 06:36:03;;;;;;;7.47;4.60;;;;;;;;;;5051266;28;20025;-38
2021/10/13 06:38:28;;;;;;;6.38;3.88;;;;;;;;;;5050382;28;20052;-42
2021/10/13 06:40:53;;;;;;;4.47;4.07;;;;;;;;;;5049619;28;20057;-42
2021/10/13 06:43:19;;;;;;;8.02;5.07;;;;;;;;;;5050988;28;20028;-42
2021/10/13 06:45:44;;;;;;;4.37;3.90;;;;;;;;;;5051123;28;20029;-41
2021/10/13 06:48:10;;;;;;;6.23;4.53;;;;;;;;;;5050383;28;20032;-44
2021/10/13 06:50:35;;;;;;;9.07;5.40;;;;;;;;;;5049771;28;20033;-41
2021/10/13 06:53:01;;;;;;;13.45;5.47;;;;;;;;;;5050891;28;20463;-42
2021/10/13 06:55:26;;;;;;;7.13;4.03;;;;;;;;;;5050026;28;20029;-40
2021/10/13 06:57:51;;;;;;;11.80;5.13;;;;;;;;;;5048555;28;20407;-44
2021/10/13 07:00:17;;;;;;;5.27;4.53;;;;;;;;;;5048752;28;20083;-40
2021/10/13 07:02:42;;;;;;;6.50;4.50;;;;;;;;;;5050043;28;20033;-42
2021/10/13 07:05:08;;;;;;;5.45;4.85;;;;;;;;;;5050417;28;20057;-41
2021/10/13 07:07:40;;;;;;;11.63;4.70;;;;;;;;;;5050021;28;20121;-41
2021/10/13 07:10:05;;;;;;;8.43;5.10;;;;;;;;;;5048050;28;20096;-41
2021/10/13 07:12:32;;;;;;;7.93;5.17;;;;;;;;;;5050710;28;20495;-40
2021/10/13 07:14:57;;;;;;;;;;;;;;;;;;5050965;28;20020;-41
2021/10/13 07:17:23;;;;;;;8.87;5.30;;;;;;;;;;5046818;28;20445;-40
2021/10/13 07:19:48;;;;;;;16.43;6.07;;;;;;;;;;5047375;28;20029;-40
2021/10/13 07:22:15;;;;;;;17.67;6.10;;;;;;;;;;5047382;28;20024;-40
2021/10/13 07:24:41;;;;;;;11.43;5.95;;;;;;;;;;5049360;28;20565;-41
2021/10/13 07:27:06;;;;;;;12.63;5.77;;;;;;;;;;5049888;28;20060;-41
2021/10/13 07:29:39;;;;;;;14.80;6.40;;;;;;;;;;5049972;28;20067;-40
2021/10/13 07:32:05;;;;;;;12.25;5.40;;;;;;;;;;5050554;28;20028;-43
2021/10/13 07:34:30;;;;;;;8.50;5.63;;;;;;;;;;5054136;28;20172;-41
2021/10/13 07:36:56;;;;;;;11.97;5.30;;;;;;;;;;5052292;28;20506;-43
2021/10/13 07:39:21;;;;;;;8.53;5.67;;;;;;;;;;5052262;28;20016;-41
2021/10/13 07:41:46;;;;;;;11.00;5.67;;;;;;;;;;5052529;28;20104;-41
2021/10/13 07:44:12;;;;;;;11.63;5.40;;;;;;;;;;5053934;28;20242;-41
2021/10/13 07:46:37;;;;;;;12.77;5.37;;;;;;;;;;5052676;28;20028;-45
2021/10/13 07:49:02;;;;;;;11.37;5.33;;;;;;;;;;5053907;28;20103;-43
2021/10/13 07:51:28;;;;;;;9.07;4.73;;;;;;;;;;5053730;28;20481;-41
2021/10/13 07:53:53;;;;;;;7.77;5.10;;;;;;;;;;5053709;28;20372;-41
2021/10/13 07:56:18;;;;;;;7.87;4.83;;;;;;;;;;5049500;28;20077;-44
2021/10/13 07:58:44;;;;;;;10.10;5.40;;;;;;;;;;5030148;28;20033;-39
2021/10/13 08:01:09;;;;;;;11.30;4.90;;;;;;;;;;5037184;28;20029;-41
2021/10/13 08:03:34;;;;;;;6.97;4.60;;;;;;;;;;5051702;28;20029;-41
2021/10/13 08:06:00;;;;;;;8.10;5.20;;;;;;;;;;5050375;28;20499;-40
2021/10/13 08:08:25;;;;;;;11.75;5.15;;;;;;;;;;5050642;28;20112;-40
2021/10/13 08:10:51;;;;;;;10.43;5.07;;;;;;;;;;5052578;28;20080;-41
2021/10/13 08:13:16;;;;;;;8.23;5.00;;;;;;;;;;5053530;28;20103;-42
2021/10/13 08:15:42;;;;;;;9.97;4.57;;;;;;;;;;5046928;28;20044;-41
2021/10/13 08:18:07;;;;;;;7.30;4.70;;;;;;;;;;5053315;28;20396;-42
2021/10/13 08:20:32;;;;;;;6.00;4.47;;;;;;;;;;5053633;28;20541;-41
2021/10/13 08:22:58;;;;;;;8.77;4.70;;;;;;;;;;5053245;28;20036;-41
2021/10/13 08:25:23;;;;;;;6.20;4.20;;;;;;;;;;5032999;28;20025;-40
2021/10/13 08:27:48;;;;;;;6.80;4.60;;;;;;;;;;5036075;28;20475;-42
2021/10/13 08:30:14;;;;;;;8.27;4.83;;;;;;;;;;5052873;28;20430;-41
2021/10/13 08:32:39;;;;;;;6.10;4.43;;;;;;;;;;5052292;28;20041;-42
2021/10/13 08:35:05;;;;;;;7.67;3.80;;;;;;;;;;5052761;28;20029;-42
2021/10/13 08:37:30;;;;;;;4.23;3.83;;;;;;;;;;5053602;28;20033;-39
2021/10/13 08:39:56;;;;;;;6.90;4.80;;;;;;;;;;5053911;28;20029;-39
2021/10/13 08:42:22;;;;;;;6.13;4.00;;;;;;;;;;5035083;28;20483;-40
2021/10/13 08:44:47;;;;;;;5.22;3.67;;;;;;;;;;5052816;28;20483;-42
2021/10/13 08:47:13;;;;;;;5.17;3.80;;;;;;;;;;5052492;28;20032;-41
2021/10/13 08:49:39;;;;;;;6.03;4.07;;;;;;;;;;5052308;28;20032;-39
2021/10/13 08:52:08;;;;;;;5.43;3.60;;;;;;;;;;5051613;28;20085;-41
2021/10/13 08:54:33;;;;;;;5.50;3.60;;;;;;;;;;5051488;28;20035;-42
2021/10/13 08:56:58;;;;;;;5.43;3.67;;;;;;;;;;5051643;28;20037;-40
2021/10/13 08:59:43;;;;;;;5.73;3.60;;;;;;;;;;5045253;28;20021;-41
2021/10/13 09:02:12;;;;;;;5.75;3.65;;;;;;;;;;5038036;28;20131;-44
2021/10/13 09:04:37;;;;;;;6.32;3.55;;;;;;;;;;5050559;28;20028;-41
2021/10/13 09:07:06;;;;;;;7.30;3.60;;;;;;;;;;5050681;28;20437;-42
2021/10/13 09:09:31;;;;;;;3.55;3.05;;;;;;;;;;5049372;28;20480;-41
2021/10/13 09:11:57;;;;;;;5.67;3.03;;;;;;;;;;5049812;28;20036;-42
2021/10/13 09:14:22;;;;;;;5.97;3.33;;;;;;;;;;5049837;28;20028;-42
2021/10/13 09:16:47;;;;;;;7.93;3.97;;;;;;;;;;5051521;28;20029;-42
2021/10/13 09:19:13;;;;;;;6.83;3.27;;;;;;;;;;5051067;28;20044;-46
2021/10/13 09:21:49;;;;;;;6.43;3.30;;;;;;;;;;5049698;28;20025;-43
2021/10/13 09:24:14;;;;;;;5.18;3.40;;;;;;;;;;5049257;28;20051;-40
2021/10/13 09:26:40;;;;;;;4.93;3.33;;;;;;;;;;5050427;28;20395;-42
2021/10/13 09:29:06;;;;;;;3.50;3.20;;;;;;;;;;5050252;28;20025;-41
2021/10/13 09:31:32;;;;;;;5.55;4.05;;;;;;;;;;5050355;28;20394;-40
2021/10/13 09:33:59;;;;;;;6.00;3.43;;;;;;;;;;5050295;28;20033;-41
2021/10/13 09:36:24;;;;;;;;;;;;;;;;;;5050617;28;20487;-41
2021/10/13 09:38:49;;;;;;;3.50;2.63;;;;;;;;;;5051424;28;19915;-44
2021/10/13 09:41:14;;;;;;;4.07;3.67;;;;;;;;;;5052218;28;20101;-42
2021/10/13 09:43:40;;;;;;;4.57;3.40;;;;;;;;;;5051997;28;20135;-40
2021/10/13 09:46:05;;;;;;;7.43;3.13;;;;;;;;;;5052091;28;20028;-42
2021/10/13 09:48:31;;;;;;;4.53;3.17;;;;;;;;;;5051882;28;20100;-42
2021/10/13 09:50:57;;;;;;;5.23;3.30;;;;;;;;;;5051877;28;20395;-42
2021/10/13 09:53:25;;;;;;;5.57;3.13;;;;;;;;;;5051303;28;20028;-40
2021/10/13 09:55:51;;;;;;;4.28;3.00;;;;;;;;;;5051597;28;20395;-41
2021/10/13 09:58:30;;;;;;;4.87;3.60;;;;;;;;;;5051527;28;20021;-43
2021/10/13 10:01:08;;;;;;;4.28;3.55;;;;;;;;;;5034886;28;20028;-42
2021/10/13 10:03:37;;;;;;;5.53;3.10;;;;;;;;;;5051539;28;20076;-41
2021/10/13 10:06:05;;;;;;;5.57;3.20;;;;;;;;;;5051310;28;20036;-43
2021/10/13 10:08:50;;;;;;;4.95;3.22;;;;;;;;;;5049583;28;20535;-41
2021/10/13 10:11:25;;;;;;;5.15;3.30;;;;;;;;;;5041522;28;20040;-41
2021/10/13 10:13:51;;;;;;;4.45;3.30;;;;;;;;;;5048700;28;20503;-40
2021/10/13 10:16:26;;;;;;;4.40;3.03;;;;;;;;;;5049496;28;20044;-43
2021/10/13 10:18:51;;;;;;;4.25;3.00;;;;;;;;;;5046701;28;20549;-42
2021/10/13 10:21:16;;;;;;;4.00;2.93;;;;;;;;;;5037805;28;20029;-40
2021/10/13 10:23:42;;;;;;;7.57;3.27;;;;;;;;;;5046578;28;20025;-43
2021/10/13 10:26:26;;;;;;;4.20;2.93;;;;;;;;;;5047982;28;20035;-40
2021/10/13 10:28:54;;;;;;;4.57;2.75;;;;;;;;;;5040761;28;20447;-41
2021/10/13 10:31:28;;;;;;;4.60;3.00;;;;;;;;;;5038279;28;20725;-42
2021/10/13 10:34:03;;;;;;;4.43;3.08;;;;;;;;;;5048704;28;20040;-42
2021/10/13 10:36:34;;;;;;;4.68;2.72;;;;;;;;;;5030665;28;20021;-42
2021/10/13 10:39:01;;;;;;;4.38;2.53;;;;;;;;;;5033429;28;20502;-42
2021/10/13 10:41:52;;;;;;;4.90;2.92;;;;;;;;;;5040534;28;20032;-41
2021/10/13 10:44:34;;;;;;;3.55;2.45;;;;;;;;;;5048128;28;20036;-43
2021/10/13 10:47:04;;;;;;;3.30;2.45;;;;;;;;;;5051102;28;20029;-41
2021/10/13 10:49:49;;;;;;;2.85;2.17;;;;;;;;;;5038484;28;20025;-42
2021/10/13 10:52:41;;;;;;;6.00;2.57;;;;;;;;;;5044820;28;20028;-43
2021/10/13 10:55:07;;;;;;;4.47;2.78;;;;;;;;;;5047621;28;20324;-41
2021/10/13 10:57:33;;;;;;;5.60;2.67;;;;;;;;;;5050820;28;20029;-41
2021/10/13 10:59:58;;;;;;;3.87;2.37;;;;;;;;;;5036421;28;20025;-41
2021/10/13 11:02:24;;;;;;;4.00;2.50;;;;;;;;;;5046745;28;20104;-40
2021/10/13 11:05:19;;;;;;;4.60;2.40;;;;;;;;;;5051260;28;20376;-42
2021/10/13 11:07:48;;;;;;;4.18;2.30;;;;;;;;;;5037781;28;20060;-41
2021/10/13 11:10:13;;;;;;;4.55;2.60;;;;;;;;;;5030901;28;20054;-40
2021/10/13 11:12:45;;;;;;;4.03;2.10;;;;;;;;;;5052388;28;20507;-43
2021/10/13 11:15:11;;;;;;;2.60;2.38;;;;;;;;;;5053370;28;20538;-41
2021/10/13 11:17:36;;;;;;;4.27;2.60;;;;;;;;;;5053343;28;20499;-41
2021/10/13 11:20:09;;;;;;;3.40;2.53;;;;;;;;;;5040846;28;20017;-39
2021/10/13 11:22:34;;;;;;;2.90;2.20;;;;;;;;;;5054106;28;20510;-42
2021/10/13 11:25:00;;;;;;;2.47;1.87;;;;;;;;;;5054410;28;20029;-43
2021/10/13 11:27:25;;;;;;;4.40;2.10;;;;;;;;;;5054364;28;20513;-41
2021/10/13 11:29:51;;;;;;;2.90;2.20;;;;;;;;;;5040505;28;20052;-42
2021/10/13 11:32:17;;;;;;;2.33;1.77;;;;;;;;;;5049036;28;20108;-46
2021/10/13 11:34:43;;;;;;;4.07;2.40;;;;;;;;;;5054487;28;20143;-42
2021/10/13 11:37:09;;;;;;;3.25;2.00;;;;;;;;;;5052033;28;20031;-41
2021/10/13 11:39:35;;;;;;;2.63;2.00;;;;;;;;;;5041735;28;20029;-42
2021/10/13 11:42:02;;;;;;;8.50;2.53;;;;;;;;;;5051389;28;20614;-42
2021/10/13 11:44:28;;;;;;;3.30;2.08;;;;;;;;;;5054435;28;20076;-42
2021/10/13 11:46:54;;;;;;;2.70;2.22;;;;;;;;;;5052859;28;20456;-42
2021/10/13 11:49:19;;;;;;;3.50;2.42;;;;;;;;;;5046383;28;20040;-41
2021/10/13 11:52:02;;;;;;;4.03;1.77;;;;;;;;;;5044460;28;20404;-43
2021/10/13 11:54:28;;;;;;;1.83;1.73;;;;;;;;;;5054596;28;20029;-41
2021/10/13 11:56:53;;;;;;;3.93;2.10;;;;;;;;;;5052763;28;21312;-42
2021/10/13 11:59:18;;;;;;;3.20;2.30;;;;;;;;;;5053903;28;20036;-43
2021/10/13 12:01:44;;;;;;;3.00;1.87;;;;;;;;;;5052333;28;20025;-43
2021/10/13 12:04:10;;;;;;;2.83;1.70;;;;;;;;;;5053847;28;20025;-40
2021/10/13 12:06:42;;;;;;;3.17;1.83;;;;;;;;;;5054137;28;20029;-41
2021/10/13 12:09:08;;;;;;;2.38;1.83;;;;;;;;;;5052257;28;20025;-39
2021/10/13 12:11:39;;;;;;;4.07;2.30;;;;;;;;;;5051465;28;20071;-40
2021/10/13 12:14:11;;;;;;;4.25;1.90;;;;;;;;;;5051716;28;20021;-40
2021/10/13 12:16:37;;;;;;;1.55;1.40;;;;;;;;;;5050846;28;20031;-40
2021/10/13 12:19:12;;;;;;;2.87;1.87;;;;;;;;;;5051216;28;20041;-39
2021/10/13 12:21:38;;;;;;;1.77;1.50;;;;;;;;;;5051379;28;20507;-40
2021/10/13 12:24:04;;;;;;;2.17;1.90;;;;;;;;;;5052380;28;20128;-39
2021/10/13 12:26:35;;;;;;;1.90;1.77;;;;;;;;;;5053198;28;20036;-40
2021/10/13 12:29:06;;;;;;;3.10;1.75;;;;;;;;;;5053290;28;20080;-40
2021/10/13 12:31:31;;;;;;;3.40;1.75;;;;;;;;;;5047934;28;20028;-40
2021/10/13 12:34:01;;;;;;;2.27;2.03;;;;;;;;;;5041873;28;20029;-40
2021/10/13 12:36:29;;;;;;;3.38;1.80;;;;;;;;;;5044645;28;20060;-40
2021/10/13 12:39:03;;;;;;;1.85;1.70;;;;;;;;;;5051401;28;20242;-40
2021/10/13 12:41:33;;;;;;;4.50;2.00;;;;;;;;;;5052608;28;20048;-40
2021/10/13 12:43:59;;;;;;;3.10;2.00;;;;;;;;;;5039044;28;20025;-41
2021/10/13 12:46:26;;;;;;;2.07;1.80;;;;;;;;;;5046845;28;20108;-45
2021/10/13 12:48:51;;;;;;;;;;;;;;;;;;5052783;28;20104;-41
2021/10/13 12:51:16;;;;;;;2.47;1.63;;;;;;;;;;5051129;28;20351;-42
2021/10/13 12:53:42;;;;;;;2.57;1.70;;;;;;;;;;5036698;28;20044;-40
2021/10/13 12:56:08;;;;;;;2.30;1.70;;;;;;;;;;5042678;28;20025;-41
2021/10/13 12:58:33;;;;;;;2.03;1.50;;;;;;;;;;5047368;28;20276;-39
2021/10/13 13:00:59;;;;;;;2.40;1.80;;;;;;;;;;5050145;28;20103;-40
2021/10/13 13:03:25;;;;;;;4.53;1.80;;;;;;;;;;5036112;28;20128;-44
2021/10/13 13:05:51;;;;;;;1.90;1.70;;;;;;;;;;5051138;28;20083;-42
2021/10/13 13:08:16;;;;;;;2.67;1.90;;;;;;;;;;5052648;28;20379;-40
2021/10/13 13:10:42;;;;;;;2.07;1.50;;;;;;;;;;5052020;28;20475;-40
2021/10/13 13:13:07;;;;;;;2.67;1.67;;;;;;;;;;5051334;28;20047;-41
2021/10/13 13:15:32;;;;;;;2.43;1.70;;;;;;;;;;5046936;28;20087;-40
2021/10/13 13:17:58;;;;;;;3.10;1.70;;;;;;;;;;5052109;28;20083;-39
2021/10/13 13:20:23;;;;;;;2.73;2.00;;;;;;;;;;5051911;28;20472;-42
2021/10/13 13:22:48;;;;;;;2.37;1.60;;;;;;;;;;5052287;28;20113;-40
2021/10/13 13:25:14;;;;;;;1.70;1.53;;;;;;;;;;5033882;28;20100;-40
2021/10/13 13:27:39;;;;;;;1.73;1.63;;;;;;;;;;5050199;28;20135;-41
2021/10/13 13:30:05;;;;;;;1.93;1.70;;;;;;;;;;5051007;28;20029;-41
2021/10/13 13:32:32;;;;;;;3.63;2.30;;;;;;;;;;5051373;28;20135;-41
2021/10/13 13:34:58;;;;;;;2.38;1.70;;;;;;;;;;5050112;28;20559;-41
2021/10/13 13:37:23;;;;;;;1.60;1.50;;;;;;;;;;5041567;28;20584;-41
2021/10/13 13:39:48;;;;;;;3.43;1.73;;;;;;;;;;5051319;28;20078;-39
2021/10/13 13:42:14;;;;;;;1.90;1.47;;;;;;;;;;5047544;28;20112;-41
2021/10/13 13:44:39;;;;;;;2.43;1.77;;;;;;;;;;5049196;28;20056;-42
2021/10/13 13:47:05;;;;;;;2.57;1.60;;;;;;;;;;5049061;28;20518;-40
2021/10/13 13:49:31;;;;;;;5.03;1.67;;;;;;;;;;5042170;28;20032;-41
2021/10/13 13:51:56;;;;;;;2.40;1.30;;;;;;;;;;5050443;28;20048;-42
2021/10/13 13:54:21;;;;;;;1.83;1.40;;;;;;;;;;5047390;28;20029;-39
2021/10/13 13:56:47;;;;;;;2.07;1.87;;;;;;;;;;5043351;28;20040;-42
2021/10/13 13:59:13;;;;;;;2.17;1.53;;;;;;;;;;5050781;28;20039;-43
2021/10/13 14:01:38;;;;;;;2.40;1.87;;;;;;;;;;5050700;28;20036;-41
2021/10/13 14:04:03;;;;;;;3.73;1.90;;;;;;;;;;5042604;28;20266;-41
2021/10/13 14:06:29;;;;;;;1.73;1.50;;;;;;;;;;5050907;28;20031;-41
2021/10/13 14:08:54;;;;;;;2.83;1.60;;;;;;;;;;5035145;28;20036;-40
2021/10/13 14:11:20;;;;;;;2.13;1.60;;;;;;;;;;5050279;28;20029;-40
2021/10/13 14:13:45;;;;;;;4.77;1.60;;;;;;;;;;5048880;28;20033;-39
2021/10/13 14:16:11;;;;;;;2.77;1.83;;;;;;;;;;5050820;28;20028;-40
2021/10/13 14:18:36;;;;;;;2.13;1.37;;;;;;;;;;5049216;28;20049;-41
2021/10/13 14:21:01;;;;;;;2.33;1.50;;;;;;;;;;5048377;28;20032;-42
2021/10/13 14:23:28;;;;;;;2.50;1.97;;;;;;;;;;5050641;28;20083;-42
2021/10/13 14:25:53;;;;;;;3.10;1.50;;;;;;;;;;5051293;28;20108;-40
2021/10/13 14:28:19;;;;;;;1.70;1.60;;;;;;;;;;5050677;28;20116;-40
2021/10/13 14:30:45;;;;;;;2.27;1.50;;;;;;;;;;5035062;28;20411;-40
2021/10/13 14:33:10;;;;;;;2.27;1.97;;;;;;;;;;5049756;28;20444;-42
2021/10/13 14:35:36;;;;;;;1.80;1.70;;;;;;;;;;5050726;28;20029;-41
2021/10/13 14:38:01;;;;;;;2.63;1.70;;;;;;;;;;5049555;28;20420;-41
2021/10/13 14:40:27;;;;;;;4.63;1.97;;;;;;;;;;5061496;28;20481;-39